createdAt,value
2017-11-09T00:01:34.501Z,5.80
2017-11-09T00:04:08.337Z,5.80
2017-11-09T00:06:36.497Z,5.70
2017-11-09T00:09:05.414Z,5.70
2017-11-09T00:11:33.692Z,5.70
2017-11-09T00:14:01.868Z,5.70
2017-11-09T00:16:33.724Z,5.70
2017-11-09T00:19:01.896Z,5.70
2017-11-09T00:21:30.013Z,5.70
2017-11-09T00:23:58.165Z,5.70
2017-11-09T00:26:26.282Z,5.70
2017-11-09T00:28:55.311Z,5.80
2017-11-09T00:31:23.428Z,5.80
2017-11-09T00:33:51.651Z,5.80
2017-11-09T00:36:19.768Z,5.80
2017-11-09T00:38:47.906Z,5.80
2017-11-09T00:41:16.068Z,5.80
2017-11-09T00:43:44.161Z,5.80
2017-11-09T00:46:12.311Z,5.70
2017-11-09T00:48:41.304Z,5.70
2017-11-09T00:51:09.407Z,5.70
2017-11-09T00:53:37.568Z,5.60
2017-11-09T00:56:05.717Z,5.70
2017-11-09T00:58:33.821Z,5.60
2017-11-09T01:01:01.956Z,5.50
2017-11-09T01:03:30.080Z,5.50
2017-11-09T01:05:58.228Z,5.50
2017-11-09T01:08:26.344Z,5.50
2017-11-09T01:10:55.270Z,5.60
2017-11-09T01:13:23.388Z,5.60
2017-11-09T01:15:51.546Z,5.60
2017-11-09T01:18:19.692Z,5.70
2017-11-09T01:20:47.859Z,5.70
2017-11-09T01:23:16.032Z,5.60
2017-11-09T01:25:44.142Z,5.60
2017-11-09T01:28:12.280Z,5.60
2017-11-09T01:30:40.428Z,5.60
2017-11-09T01:33:09.439Z,5.50
2017-11-09T01:35:38.332Z,5.50
2017-11-09T01:38:06.462Z,5.50
2017-11-09T01:40:34.679Z,5.50
2017-11-09T01:43:02.857Z,5.50
2017-11-09T01:45:30.960Z,5.50
2017-11-09T01:47:59.092Z,5.50
2017-11-09T01:50:27.286Z,5.50
2017-11-09T01:52:55.441Z,5.40
2017-11-09T01:55:24.341Z,5.40
2017-11-09T01:57:52.608Z,5.40
2017-11-09T02:00:20.717Z,5.50
2017-11-09T02:02:48.963Z,5.50
2017-11-09T02:05:17.073Z,5.40
2017-11-09T02:07:45.225Z,5.50
2017-11-09T02:10:13.494Z,5.40
2017-11-09T02:12:41.650Z,5.50
2017-11-09T02:15:09.747Z,5.50
2017-11-09T02:17:37.896Z,5.50
2017-11-09T02:20:06.004Z,5.40
2017-11-09T02:22:34.238Z,5.30
2017-11-09T02:25:02.348Z,5.30
2017-11-09T02:27:30.487Z,5.30
2017-11-09T02:29:58.622Z,5.40
2017-11-09T02:32:27.508Z,5.40
2017-11-09T02:34:56.440Z,5.50
2017-11-09T02:37:24.556Z,5.40
2017-11-09T02:39:52.703Z,5.50
2017-11-09T02:42:20.856Z,5.50
2017-11-09T02:44:48.960Z,5.50
2017-11-09T02:47:17.081Z,5.60
2017-11-09T02:49:45.219Z,5.60
2017-11-09T02:52:13.437Z,5.60
2017-11-09T02:54:41.625Z,5.60
2017-11-09T02:57:14.688Z,5.60
2017-11-09T02:59:43.592Z,5.60
2017-11-09T03:02:11.700Z,5.60
2017-11-09T03:04:39.825Z,5.70
2017-11-09T03:07:07.982Z,5.70
2017-11-09T03:09:36.892Z,5.70
2017-11-09T03:12:05.074Z,5.60
2017-11-09T03:14:33.185Z,5.70
2017-11-09T03:17:01.330Z,5.70
2017-11-09T03:19:29.490Z,5.70
2017-11-09T03:21:57.763Z,5.70
2017-11-09T03:24:25.887Z,5.70
2017-11-09T03:26:54.821Z,5.70
2017-11-09T03:29:23.692Z,5.70
2017-11-09T03:31:52.605Z,5.70
2017-11-09T03:34:20.778Z,5.70
2017-11-09T03:36:48.899Z,5.70
2017-11-09T03:39:17.121Z,5.70
2017-11-09T03:41:45.298Z,5.70
2017-11-09T03:44:13.489Z,5.70
2017-11-09T03:46:41.589Z,5.60
2017-11-09T03:49:09.816Z,5.60
2017-11-09T03:51:37.928Z,5.60
2017-11-09T03:54:06.158Z,5.60
2017-11-09T03:56:34.331Z,5.60
2017-11-09T03:59:03.219Z,5.50
2017-11-09T04:01:32.112Z,5.50
2017-11-09T04:04:00.239Z,5.50
2017-11-09T04:06:28.358Z,5.40
2017-11-09T04:08:56.632Z,5.50
2017-11-09T04:11:24.737Z,5.40
2017-11-09T04:13:52.977Z,5.50
2017-11-09T04:16:21.844Z,5.50
2017-11-09T04:18:50.757Z,5.50
2017-11-09T04:21:18.927Z,5.50
2017-11-09T04:23:47.102Z,5.50
2017-11-09T04:26:15.281Z,5.50
2017-11-09T04:28:43.391Z,5.50
2017-11-09T04:31:11.506Z,5.40
2017-11-09T04:33:39.671Z,5.50
2017-11-09T04:36:07.791Z,5.50
2017-11-09T04:38:36.047Z,5.50
2017-11-09T04:41:04.210Z,5.50
2017-11-09T04:43:32.300Z,5.60
2017-11-09T04:46:00.454Z,5.50
2017-11-09T04:48:28.627Z,5.50
2017-11-09T04:50:56.801Z,5.50
2017-11-09T04:53:24.976Z,5.50
2017-11-09T04:55:53.147Z,5.50
2017-11-09T04:58:21.319Z,5.50
2017-11-09T05:00:49.435Z,5.50
2017-11-09T05:03:17.574Z,5.50
2017-11-09T05:05:45.700Z,5.50
2017-11-09T05:08:14.627Z,5.50
2017-11-09T05:10:42.801Z,5.50
2017-11-09T05:13:10.933Z,5.50
2017-11-09T05:15:39.144Z,5.60
2017-11-09T05:18:07.325Z,5.50
2017-11-09T05:20:35.436Z,5.60
2017-11-09T05:23:03.581Z,5.50
2017-11-09T05:25:32.495Z,5.50
2017-11-09T05:28:00.642Z,5.40
2017-11-09T05:30:28.798Z,5.40
2017-11-09T05:32:56.921Z,5.50
2017-11-09T05:35:25.051Z,5.50
2017-11-09T05:37:53.213Z,5.50
2017-11-09T05:40:21.389Z,5.60
2017-11-09T05:42:49.493Z,5.60
2017-11-09T05:45:17.627Z,5.60
2017-11-09T05:47:45.751Z,5.60
2017-11-09T05:50:13.875Z,5.70
2017-11-09T05:52:42.014Z,5.70
2017-11-09T05:55:11.077Z,5.70
2017-11-09T05:57:40.034Z,5.70
2017-11-09T06:00:08.923Z,5.70
2017-11-09T06:02:37.056Z,5.70
2017-11-09T06:05:05.981Z,5.70
2017-11-09T06:07:34.116Z,5.70
2017-11-09T06:10:02.231Z,5.70
2017-11-09T06:12:30.398Z,5.60
2017-11-09T06:14:59.265Z,5.60
2017-11-09T06:17:28.285Z,5.60
2017-11-09T06:19:56.408Z,5.50
2017-11-09T06:22:24.525Z,5.60
2017-11-09T06:24:52.658Z,5.60
2017-11-09T06:27:20.875Z,5.60
2017-11-09T06:29:49.046Z,5.60
2017-11-09T06:32:17.149Z,5.60
2017-11-09T06:34:45.271Z,5.60
2017-11-09T06:37:13.410Z,5.60
2017-11-09T06:39:41.547Z,5.70
2017-11-09T06:42:09.678Z,5.70
2017-11-09T06:44:38.611Z,5.80
2017-11-09T06:47:06.768Z,5.70
2017-11-09T06:49:34.941Z,5.80
2017-11-09T06:52:03.117Z,5.80
2017-11-09T06:54:31.239Z,5.80
2017-11-09T06:56:59.361Z,5.90
2017-11-09T06:59:28.349Z,5.90
2017-11-09T07:01:56.524Z,5.90
2017-11-09T07:04:24.697Z,6.00
2017-11-09T07:06:52.869Z,6.00
2017-11-09T07:09:21.018Z,6.00
2017-11-09T07:11:49.930Z,6.00
2017-11-09T07:14:18.105Z,6.00
2017-11-09T07:16:46.278Z,6.10
2017-11-09T07:19:14.397Z,6.10
2017-11-09T07:21:42.552Z,6.10
2017-11-09T07:24:10.652Z,6.20
2017-11-09T07:26:39.568Z,6.20
2017-11-09T07:29:07.762Z,6.20
2017-11-09T07:31:36.034Z,6.20
2017-11-09T07:34:04.140Z,6.10
2017-11-09T07:36:32.271Z,6.10
2017-11-09T07:39:00.451Z,6.20
2017-11-09T07:41:28.724Z,6.20
2017-11-09T07:43:56.898Z,6.20
2017-11-09T07:46:25.018Z,6.20
2017-11-09T07:48:53.148Z,6.30
2017-11-09T07:51:21.275Z,6.20
2017-11-09T07:53:50.175Z,6.30
2017-11-09T07:56:19.096Z,6.40
2017-11-09T07:58:47.211Z,6.40
2017-11-09T08:01:15.345Z,6.40
2017-11-09T08:03:43.465Z,6.50
2017-11-09T08:06:11.686Z,6.50
2017-11-09T08:08:39.858Z,6.60
2017-11-09T08:11:08.027Z,6.60
2017-11-09T08:13:36.142Z,6.60
2017-11-09T08:16:04.288Z,6.70
2017-11-09T08:18:32.448Z,6.70
2017-11-09T08:21:00.620Z,6.80
2017-11-09T08:23:28.797Z,6.90
2017-11-09T08:25:59.982Z,6.90
2017-11-09T08:28:30.310Z,6.90
2017-11-09T08:31:00.791Z,7.00
2017-11-09T08:33:32.607Z,6.90
2017-11-09T08:36:01.641Z,7.00
2017-11-09T08:38:29.803Z,6.90
2017-11-09T08:40:57.949Z,7.00
2017-11-09T08:43:26.852Z,7.10
2017-11-09T08:45:55.730Z,7.10
2017-11-09T08:48:24.634Z,7.10
2017-11-09T08:50:52.904Z,7.10
2017-11-09T08:53:21.824Z,7.20
2017-11-09T08:55:50.101Z,7.10
2017-11-09T08:58:18.283Z,7.20
2017-11-09T09:00:46.415Z,7.30
2017-11-09T09:03:15.337Z,7.40
2017-11-09T09:05:43.450Z,7.40
2017-11-09T09:08:11.589Z,7.50
2017-11-09T09:10:39.760Z,7.60
2017-11-09T09:13:07.938Z,7.80
2017-11-09T09:15:36.054Z,7.90
2017-11-09T09:18:04.183Z,8.10
2017-11-09T09:20:51.094Z,8.20
2017-11-09T09:23:19.240Z,8.20
2017-11-09T09:28:53.184Z,8.30
2017-11-09T09:31:21.338Z,8.40
2017-11-09T09:36:59.608Z,8.40
2017-11-09T09:39:28.885Z,8.40
2017-11-09T09:41:56.996Z,8.50
2017-11-09T09:44:25.142Z,8.60
2017-11-09T09:46:53.304Z,8.70
2017-11-09T09:49:21.481Z,8.80
2017-11-09T09:51:49.587Z,8.90
2017-11-09T09:54:17.927Z,8.90
2017-11-09T09:56:46.101Z,8.70
2017-11-09T09:59:14.227Z,8.70
2017-11-09T10:01:43.128Z,8.40
2017-11-09T10:04:12.034Z,8.20
2017-11-09T10:06:40.179Z,8.20
2017-11-09T10:09:08.396Z,8.20
2017-11-09T10:11:36.536Z,8.20
2017-11-09T10:14:05.431Z,8.10
2017-11-09T10:16:34.349Z,8.00
2017-11-09T10:19:02.521Z,8.00
2017-11-09T10:21:30.622Z,7.90
2017-11-09T10:23:58.870Z,7.80
2017-11-09T10:26:26.999Z,7.80
2017-11-09T10:28:55.209Z,7.80
2017-11-09T10:31:24.108Z,7.90
2017-11-09T10:33:52.209Z,7.80
2017-11-09T10:36:20.346Z,7.90
2017-11-09T10:38:48.456Z,7.90
2017-11-09T10:41:16.687Z,7.80
2017-11-09T10:43:45.551Z,7.80
2017-11-09T10:46:14.457Z,7.80
2017-11-09T10:48:42.644Z,7.80
2017-11-09T10:51:10.816Z,7.80
2017-11-09T10:53:38.949Z,7.70
2017-11-09T10:56:07.165Z,7.70
2017-11-09T10:58:38.191Z,7.70
2017-11-09T11:01:06.328Z,7.70
2017-11-09T11:03:34.431Z,7.70
2017-11-09T11:06:02.600Z,7.70
2017-11-09T11:08:31.489Z,7.60
2017-11-09T11:11:02.413Z,7.50
2017-11-09T11:13:30.620Z,7.50
2017-11-09T11:15:58.792Z,7.50
2017-11-09T11:18:26.898Z,7.50
2017-11-09T11:20:55.034Z,7.60
2017-11-09T11:23:23.157Z,7.60
2017-11-09T11:25:51.282Z,7.50
2017-11-09T11:28:19.416Z,7.50
2017-11-09T11:30:48.330Z,7.50
2017-11-09T11:33:16.466Z,7.50
2017-11-09T11:35:44.689Z,7.50
2017-11-09T11:38:12.824Z,7.50
2017-11-09T11:40:41.743Z,7.50
2017-11-09T11:43:10.054Z,7.50
2017-11-09T11:45:38.198Z,7.50
2017-11-09T11:48:06.305Z,7.60
2017-11-09T11:50:34.543Z,7.60
2017-11-09T11:53:02.638Z,7.60
2017-11-09T11:55:30.789Z,7.60
2017-11-09T11:57:58.961Z,7.60
2017-11-09T12:00:27.850Z,7.60
2017-11-09T12:02:58.522Z,7.60
2017-11-09T12:05:26.654Z,7.60
2017-11-09T12:07:54.835Z,7.60
2017-11-09T12:10:22.999Z,7.60
2017-11-09T12:12:51.139Z,7.60
2017-11-09T12:15:20.064Z,7.60
2017-11-09T12:17:48.180Z,7.60
2017-11-09T12:20:16.957Z,7.60
2017-11-09T12:22:45.110Z,7.50
2017-11-09T12:25:13.269Z,7.50
2017-11-09T12:27:41.442Z,7.50
2017-11-09T12:30:09.613Z,7.50
2017-11-09T12:32:37.731Z,7.50
2017-11-09T12:35:05.851Z,7.50
2017-11-09T12:37:34.028Z,7.50
2017-11-09T12:40:03.682Z,7.60
2017-11-09T12:42:31.896Z,7.60
2017-11-09T12:45:00.789Z,7.60
2017-11-09T12:47:28.977Z,7.60
2017-11-09T12:49:57.101Z,7.50
2017-11-09T12:52:29.506Z,7.60
2017-11-09T12:54:57.886Z,7.60
2017-11-09T12:57:26.013Z,7.70
2017-11-09T12:59:54.142Z,7.70
2017-11-09T13:02:22.270Z,7.60
2017-11-09T13:04:51.215Z,7.70
2017-11-09T13:07:19.381Z,7.70
2017-11-09T13:09:47.553Z,7.70
2017-11-09T13:12:15.675Z,7.70
2017-11-09T13:14:43.813Z,7.60
2017-11-09T13:17:11.943Z,7.60
2017-11-09T13:19:40.842Z,7.50
2017-11-09T13:22:09.056Z,7.50
2017-11-09T13:24:37.217Z,7.60
2017-11-09T13:27:05.432Z,7.50
2017-11-09T13:29:33.559Z,7.50
2017-11-09T13:32:01.698Z,7.50
2017-11-09T13:34:31.535Z,7.50
2017-11-09T13:36:59.709Z,7.40
2017-11-09T13:39:28.367Z,7.40
2017-11-09T13:41:57.390Z,7.30
2017-11-09T13:44:25.761Z,7.30
2017-11-09T13:46:54.636Z,7.30
2017-11-09T13:49:22.787Z,7.20
2017-11-09T13:51:51.685Z,7.30
2017-11-09T13:54:20.620Z,7.30
2017-11-09T13:56:48.781Z,7.30
2017-11-09T13:59:18.296Z,7.30
2017-11-09T14:01:46.681Z,7.30
2017-11-09T14:04:14.804Z,7.30
2017-11-09T14:06:43.698Z,7.20
2017-11-09T14:09:12.614Z,7.20
2017-11-09T14:11:40.890Z,7.20
2017-11-09T14:14:09.065Z,7.20
2017-11-09T14:16:37.233Z,7.20
2017-11-09T14:19:05.351Z,7.20
2017-11-09T14:21:33.534Z,7.20
2017-11-09T14:24:02.280Z,7.20
2017-11-09T14:26:30.421Z,7.20
2017-11-09T14:28:59.326Z,7.10
2017-11-09T14:31:28.323Z,7.10
2017-11-09T14:33:56.594Z,7.10
2017-11-09T14:36:24.715Z,7.10
2017-11-09T14:38:52.938Z,7.10
2017-11-09T14:41:21.817Z,7.10
2017-11-09T14:43:50.713Z,7.10
2017-11-09T14:46:18.893Z,7.00
2017-11-09T14:48:47.770Z,7.10
2017-11-09T14:51:16.654Z,7.10
2017-11-09T14:53:44.838Z,7.10
2017-11-09T14:56:13.020Z,7.10
2017-11-09T14:58:41.296Z,7.10
2017-11-09T15:01:09.451Z,7.10
2017-11-09T15:03:37.595Z,7.00
2017-11-09T15:06:06.530Z,7.10
2017-11-09T15:08:34.652Z,7.10
2017-11-09T15:11:02.807Z,7.10
2017-11-09T15:13:30.951Z,7.10
2017-11-09T15:15:59.122Z,7.00
2017-11-09T15:18:27.255Z,7.00
2017-11-09T15:20:55.397Z,7.00
2017-11-09T15:23:23.533Z,7.00
2017-11-09T15:25:51.672Z,7.10
2017-11-09T15:28:20.619Z,7.10
2017-11-09T15:30:48.729Z,7.00
2017-11-09T15:33:17.674Z,7.10
2017-11-09T15:35:51.446Z,7.00
2017-11-09T15:38:20.361Z,7.10
2017-11-09T15:40:48.591Z,7.00
2017-11-09T15:43:16.761Z,7.10
2017-11-09T15:45:44.882Z,7.10
2017-11-09T15:48:13.149Z,7.10
2017-11-09T15:50:41.274Z,7.10
2017-11-09T15:53:10.239Z,7.10
2017-11-09T15:55:38.411Z,7.10
2017-11-09T15:58:06.560Z,7.10
2017-11-09T16:00:34.701Z,7.20
2017-11-09T16:03:03.624Z,7.10
2017-11-09T16:05:31.744Z,7.10
2017-11-09T16:08:05.907Z,7.10
2017-11-09T16:10:34.026Z,7.10
2017-11-09T16:13:02.255Z,7.10
2017-11-09T16:15:30.360Z,7.10
2017-11-09T16:17:58.497Z,7.10
2017-11-09T16:20:26.618Z,7.10
2017-11-09T16:22:54.821Z,7.10
2017-11-09T16:25:23.733Z,7.10
2017-11-09T16:27:51.887Z,7.00
2017-11-09T16:30:20.052Z,7.00
2017-11-09T16:32:48.967Z,7.00
2017-11-09T16:35:17.830Z,7.00
2017-11-09T16:37:46.733Z,7.00
2017-11-09T16:40:14.922Z,7.00
2017-11-09T16:42:43.072Z,7.00
2017-11-09T16:45:11.938Z,7.00
2017-11-09T16:47:40.083Z,7.00
2017-11-09T16:50:08.993Z,7.00
2017-11-09T16:52:40.881Z,7.00
2017-11-09T16:55:09.022Z,7.00
2017-11-09T16:57:37.156Z,7.00
2017-11-09T17:00:05.336Z,7.00
2017-11-09T17:02:33.605Z,7.00
2017-11-09T17:05:01.708Z,7.10
2017-11-09T17:07:30.872Z,7.00
2017-11-09T17:09:58.985Z,7.00
2017-11-09T17:12:27.218Z,7.00
2017-11-09T17:15:01.328Z,7.00
2017-11-09T17:17:29.613Z,7.00
2017-11-09T17:19:57.821Z,6.90
2017-11-09T17:25:36.424Z,6.90
2017-11-09T17:28:04.862Z,6.90
2017-11-09T17:30:33.117Z,6.90
2017-11-09T17:33:01.347Z,6.90
2017-11-09T17:35:29.462Z,6.90
2017-11-09T17:37:57.631Z,6.90
2017-11-09T17:40:26.523Z,6.80
2017-11-09T17:42:54.794Z,6.80
2017-11-09T17:45:23.961Z,6.80
2017-11-09T17:47:52.169Z,6.80
2017-11-09T17:50:20.336Z,6.80
2017-11-09T17:52:50.252Z,6.80
2017-11-09T17:55:18.483Z,6.80
2017-11-09T17:57:48.370Z,6.70
2017-11-09T18:00:18.028Z,6.70
2017-11-09T18:02:46.937Z,6.70
2017-11-09T18:05:15.250Z,6.70
2017-11-09T18:07:43.517Z,6.80
2017-11-09T18:10:11.661Z,6.80
2017-11-09T18:12:39.780Z,6.80
2017-11-09T18:15:08.015Z,6.80
2017-11-09T18:17:36.498Z,6.80
2017-11-09T18:20:04.678Z,6.80
2017-11-09T18:22:36.669Z,6.80
2017-11-09T18:25:04.928Z,6.80
2017-11-09T18:27:33.115Z,6.80
2017-11-09T18:30:01.261Z,6.80
2017-11-09T18:32:29.834Z,6.80
2017-11-09T18:34:58.012Z,6.80
2017-11-09T18:37:26.331Z,6.80
2017-11-09T18:39:54.464Z,6.80
2017-11-09T18:42:22.725Z,6.80
2017-11-09T18:44:50.853Z,6.80
2017-11-09T18:47:19.788Z,6.80
2017-11-09T18:49:48.063Z,6.80
2017-11-09T18:52:16.372Z,6.80
2017-11-09T18:54:44.521Z,6.80
2017-11-09T18:57:12.686Z,6.80
2017-11-09T18:59:44.749Z,6.80
2017-11-09T19:02:12.886Z,6.70
2017-11-09T19:04:41.098Z,6.70
2017-11-09T19:07:09.397Z,6.70
2017-11-09T19:09:37.616Z,6.70
2017-11-09T19:12:07.004Z,6.60
2017-11-09T19:14:36.856Z,6.60
2017-11-09T19:17:05.019Z,6.60
2017-11-09T19:19:33.308Z,6.60
2017-11-09T19:22:01.482Z,6.60
2017-11-09T19:24:29.665Z,6.50
2017-11-09T19:26:57.844Z,6.50
2017-11-09T19:29:26.118Z,6.60
2017-11-09T19:31:54.393Z,6.60
2017-11-09T19:34:22.657Z,6.60
2017-11-09T19:36:51.651Z,6.60
2017-11-09T19:39:19.835Z,6.50
2017-11-09T19:41:47.980Z,6.60
2017-11-09T19:44:16.267Z,6.60
2017-11-09T19:46:45.770Z,6.60
2017-11-09T19:49:14.149Z,6.50
2017-11-09T19:51:42.295Z,6.50
2017-11-09T19:54:10.565Z,6.50
2017-11-09T19:56:39.484Z,6.50
2017-11-09T19:59:07.693Z,6.50
2017-11-09T20:01:36.492Z,6.50
2017-11-09T20:04:04.650Z,6.50
2017-11-09T20:06:32.797Z,6.50
2017-11-09T20:09:00.981Z,6.50
2017-11-09T20:11:29.618Z,6.60
2017-11-09T20:13:57.789Z,6.60
2017-11-09T20:16:25.998Z,6.60
2017-11-09T20:18:54.157Z,6.60
2017-11-09T20:21:22.288Z,6.60
2017-11-09T20:23:50.435Z,6.60
2017-11-09T20:26:18.693Z,6.60
2017-11-09T20:28:48.247Z,6.70
2017-11-09T20:31:16.511Z,6.60
2017-11-09T20:33:45.209Z,6.60
2017-11-09T20:36:13.539Z,6.70
2017-11-09T20:38:42.046Z,6.70
2017-11-09T20:41:10.780Z,6.70
2017-11-09T20:43:40.755Z,6.60
2017-11-09T20:46:08.912Z,6.60
2017-11-09T20:48:37.175Z,6.60
2017-11-09T20:51:05.982Z,6.60
2017-11-09T20:53:37.099Z,6.60
2017-11-09T20:56:05.679Z,6.60
2017-11-09T20:58:35.807Z,6.60
2017-11-09T21:01:03.971Z,6.60
2017-11-09T21:03:32.143Z,6.60
2017-11-09T21:06:00.260Z,6.60
2017-11-09T21:08:28.407Z,6.50
2017-11-09T21:10:56.662Z,6.50
2017-11-09T21:13:24.946Z,6.50
2017-11-09T21:15:53.310Z,6.50
2017-11-09T21:18:21.586Z,6.50
2017-11-09T21:20:49.756Z,6.60
2017-11-09T21:23:19.013Z,6.60
2017-11-09T21:25:47.140Z,6.50
2017-11-09T21:28:15.318Z,6.50
2017-11-09T21:30:43.579Z,6.50
2017-11-09T21:33:11.930Z,6.50
2017-11-09T21:35:41.163Z,6.50
2017-11-09T21:38:09.433Z,6.50
2017-11-09T21:40:37.555Z,6.50
2017-11-09T21:43:05.777Z,6.50
2017-11-09T21:45:33.977Z,6.50
2017-11-09T21:48:02.428Z,6.50
2017-11-09T21:50:30.673Z,6.50
2017-11-09T21:52:59.560Z,6.50
2017-11-09T21:55:27.767Z,6.50
2017-11-09T21:57:55.919Z,6.50
2017-11-09T22:00:24.822Z,6.50
2017-11-09T22:02:53.511Z,6.50
2017-11-09T22:05:21.622Z,6.50
2017-11-09T22:07:49.960Z,6.50
2017-11-09T22:10:19.158Z,6.50
2017-11-09T22:12:47.332Z,6.40
2017-11-09T22:15:15.468Z,6.40
2017-11-09T22:17:44.363Z,6.40
2017-11-09T22:20:13.763Z,6.40
2017-11-09T22:22:41.969Z,6.40
2017-11-09T22:25:10.146Z,6.40
2017-11-09T22:27:38.493Z,6.40
2017-11-09T22:30:06.719Z,6.40
2017-11-09T22:32:34.877Z,6.40
2017-11-09T22:35:03.837Z,6.40
2017-11-09T22:37:32.759Z,6.40
2017-11-09T22:40:00.913Z,6.40
2017-11-09T22:42:29.094Z,6.40
2017-11-09T22:44:57.476Z,6.40
2017-11-09T22:47:25.977Z,6.40
2017-11-09T22:49:54.947Z,6.40
2017-11-09T22:52:23.084Z,6.40
2017-11-09T22:54:52.006Z,6.40
2017-11-09T22:57:20.173Z,6.40
2017-11-09T22:59:48.617Z,6.50
2017-11-09T23:02:17.658Z,6.40
2017-11-09T23:04:46.118Z,6.30
2017-11-09T23:07:14.288Z,6.40
2017-11-09T23:09:42.438Z,6.40
2017-11-09T23:12:11.680Z,6.40
2017-11-09T23:14:39.855Z,6.40
2017-11-09T23:17:08.842Z,6.40
2017-11-09T23:19:37.024Z,6.30
2017-11-09T23:22:05.525Z,6.40
2017-11-09T23:24:33.870Z,6.40
2017-11-09T23:27:02.026Z,6.40
2017-11-09T23:29:30.223Z,6.40
2017-11-09T23:32:02.385Z,6.40
2017-11-09T23:34:30.561Z,6.40
2017-11-09T23:36:58.884Z,6.40
2017-11-09T23:39:27.015Z,6.40
2017-11-09T23:41:55.153Z,6.40
2017-11-09T23:44:24.094Z,6.40
2017-11-09T23:46:52.221Z,6.40
2017-11-09T23:49:20.417Z,6.40
2017-11-09T23:51:48.537Z,6.40
2017-11-09T23:54:16.663Z,6.40
2017-11-09T23:56:44.833Z,6.30
2017-11-09T23:59:13.006Z,6.30
